sensor_id;sensor_type;location;lat;lon;timestamp;temperature;humidity
50907;DHT22;36882;27.680;85.304;2022-10-18T00:00:34;16.20;95.20
50907;DHT22;36882;27.680;85.304;2022-10-18T00:03:04;16.20;95.20
50907;DHT22;36882;27.680;85.304;2022-10-18T00:05:35;16.20;95.00
50907;DHT22;36882;27.680;85.304;2022-10-18T00:08:05;16.20;95.00
50907;DHT22;36882;27.680;85.304;2022-10-18T00:10:34;16.20;94.90
50907;DHT22;36882;27.680;85.304;2022-10-18T00:13:05;16.20;95.00
50907;DHT22;36882;27.680;85.304;2022-10-18T00:15:36;16.20;94.90
50907;DHT22;36882;27.680;85.304;2022-10-18T00:18:06;16.20;94.90
50907;DHT22;36882;27.680;85.304;2022-10-18T00:20:36;16.20;94.90
50907;DHT22;36882;27.680;85.304;2022-10-18T00:23:06;16.20;94.80
50907;DHT22;36882;27.680;85.304;2022-10-18T00:25:35;16.20;94.80
50907;DHT22;36882;27.680;85.304;2022-10-18T00:28:05;16.10;95.10
50907;DHT22;36882;27.680;85.304;2022-10-18T00:30:35;16.10;95.10
50907;DHT22;36882;27.680;85.304;2022-10-18T00:33:08;16.10;95.20
50907;DHT22;36882;27.680;85.304;2022-10-18T00:35:37;16.20;95.20
50907;DHT22;36882;27.680;85.304;2022-10-18T00:38:07;16.20;95.20
50907;DHT22;36882;27.680;85.304;2022-10-18T00:40:37;16.20;95.00
50907;DHT22;36882;27.680;85.304;2022-10-18T00:43:12;16.20;95.00
50907;DHT22;36882;27.680;85.304;2022-10-18T00:45:44;16.20;95.10
50907;DHT22;36882;27.680;85.304;2022-10-18T00:48:18;16.30;95.20
50907;DHT22;36882;27.680;85.304;2022-10-18T00:50:51;16.40;95.30
50907;DHT22;36882;27.680;85.304;2022-10-18T00:53:22;16.40;95.30
50907;DHT22;36882;27.680;85.304;2022-10-18T00:55:51;16.40;95.30
50907;DHT22;36882;27.680;85.304;2022-10-18T00:58:21;16.60;95.10
50907;DHT22;36882;27.680;85.304;2022-10-18T01:00:51;16.70;95.00
50907;DHT22;36882;27.680;85.304;2022-10-18T01:03:21;16.90;94.80
50907;DHT22;36882;27.680;85.304;2022-10-18T01:05:51;17.00;94.20
50907;DHT22;36882;27.680;85.304;2022-10-18T01:11:44;17.10;93.90
50907;DHT22;36882;27.680;85.304;2022-10-18T01:14:36;17.40;93.90
50907;DHT22;36882;27.680;85.304;2022-10-18T01:17:26;17.30;93.70
50907;DHT22;36882;27.680;85.304;2022-10-18T01:23:07;17.60;93.30
50907;DHT22;36882;27.680;85.304;2022-10-18T01:25:59;17.70;93.20
50907;DHT22;36882;27.680;85.304;2022-10-18T01:28:47;17.70;93.30
50907;DHT22;36882;27.680;85.304;2022-10-18T01:31:21;17.80;93.30
50907;DHT22;36882;27.680;85.304;2022-10-18T01:33:57;17.90;93.20
50907;DHT22;36882;27.680;85.304;2022-10-18T01:36:39;18.00;93.00
50907;DHT22;36882;27.680;85.304;2022-10-18T01:39:16;18.00;93.00
50907;DHT22;36882;27.680;85.304;2022-10-18T01:41:49;18.10;93.00
50907;DHT22;36882;27.680;85.304;2022-10-18T01:44:24;18.20;92.70
50907;DHT22;36882;27.680;85.304;2022-10-18T01:46:56;18.30;92.50
50907;DHT22;36882;27.680;85.304;2022-10-18T01:49:26;18.40;92.70
50907;DHT22;36882;27.680;85.304;2022-10-18T01:51:56;18.50;92.70
50907;DHT22;36882;27.680;85.304;2022-10-18T01:54:32;18.60;92.20
50907;DHT22;36882;27.680;85.304;2022-10-18T02:02:54;19.00;91.60
50907;DHT22;36882;27.680;85.304;2022-10-18T02:08:27;19.20;91.10
50907;DHT22;36882;27.680;85.304;2022-10-18T02:11:03;19.30;91.60
50907;DHT22;36882;27.680;85.304;2022-10-18T02:13:43;19.40;91.00
50907;DHT22;36882;27.680;85.304;2022-10-18T02:16:33;19.40;90.90
50907;DHT22;36882;27.680;85.304;2022-10-18T02:19:18;19.70;91.10
50907;DHT22;36882;27.680;85.304;2022-10-18T02:21:56;19.70;91.20
50907;DHT22;36882;27.680;85.304;2022-10-18T02:24:34;19.70;90.50
50907;DHT22;36882;27.680;85.304;2022-10-18T02:27:05;19.70;90.20
50907;DHT22;36882;27.680;85.304;2022-10-18T02:29:35;19.70;90.50
50907;DHT22;36882;27.680;85.304;2022-10-18T02:35:10;19.60;91.10
50907;DHT22;36882;27.680;85.304;2022-10-18T02:37:42;19.50;91.40
50907;DHT22;36882;27.680;85.304;2022-10-18T02:40:14;19.60;91.40
50907;DHT22;36882;27.680;85.304;2022-10-18T02:42:49;19.70;91.10
50907;DHT22;36882;27.680;85.304;2022-10-18T02:45:20;19.80;91.30
50907;DHT22;36882;27.680;85.304;2022-10-18T02:47:51;19.90;91.10
50907;DHT22;36882;27.680;85.304;2022-10-18T02:50:22;19.30;90.80
50907;DHT22;36882;27.680;85.304;2022-10-18T02:52:52;19.80;90.90
50907;DHT22;36882;27.680;85.304;2022-10-18T02:55:22;19.80;91.20
50907;DHT22;36882;27.680;85.304;2022-10-18T02:57:52;19.90;91.50
50907;DHT22;36882;27.680;85.304;2022-10-18T03:00:22;20.00;91.40
50907;DHT22;36882;27.680;85.304;2022-10-18T03:02:52;20.10;91.10
50907;DHT22;36882;27.680;85.304;2022-10-18T03:05:23;20.20;91.20
50907;DHT22;36882;27.680;85.304;2022-10-18T03:07:56;20.30;90.90
50907;DHT22;36882;27.680;85.304;2022-10-18T03:10:26;20.40;90.30
50907;DHT22;36882;27.680;85.304;2022-10-18T03:12:56;20.50;89.70
50907;DHT22;36882;27.680;85.304;2022-10-18T03:15:26;20.60;88.20
50907;DHT22;36882;27.680;85.304;2022-10-18T03:17:56;20.50;89.60
50907;DHT22;36882;27.680;85.304;2022-10-18T03:20:26;20.60;89.60
50907;DHT22;36882;27.680;85.304;2022-10-18T03:22:56;20.50;89.60
50907;DHT22;36882;27.680;85.304;2022-10-18T03:25:26;20.50;89.40
50907;DHT22;36882;27.680;85.304;2022-10-18T03:27:56;20.50;88.70
50907;DHT22;36882;27.680;85.304;2022-10-18T03:30:26;20.60;88.50
50907;DHT22;36882;27.680;85.304;2022-10-18T03:32:56;20.50;87.90
50907;DHT22;36882;27.680;85.304;2022-10-18T03:35:26;20.50;87.70
50907;DHT22;36882;27.680;85.304;2022-10-18T03:37:56;20.50;87.50
50907;DHT22;36882;27.680;85.304;2022-10-18T03:40:27;20.50;87.60
50907;DHT22;36882;27.680;85.304;2022-10-18T03:42:57;20.50;88.20
50907;DHT22;36882;27.680;85.304;2022-10-18T03:45:28;20.60;88.20
50907;DHT22;36882;27.680;85.304;2022-10-18T03:47:57;20.80;88.30
50907;DHT22;36882;27.680;85.304;2022-10-18T03:50:27;20.90;88.30
50907;DHT22;36882;27.680;85.304;2022-10-18T03:52:57;21.20;87.50
50907;DHT22;36882;27.680;85.304;2022-10-18T03:55:27;21.20;86.60
50907;DHT22;36882;27.680;85.304;2022-10-18T03:57:59;21.40;84.90
50907;DHT22;36882;27.680;85.304;2022-10-18T04:00:28;21.40;85.50
50907;DHT22;36882;27.680;85.304;2022-10-18T04:02:58;21.40;85.20
50907;DHT22;36882;27.680;85.304;2022-10-18T04:05:28;21.50;85.30
50907;DHT22;36882;27.680;85.304;2022-10-18T04:07:59;21.60;85.40
50907;DHT22;36882;27.680;85.304;2022-10-18T04:10:29;21.80;87.20
50907;DHT22;36882;27.680;85.304;2022-10-18T04:12:59;21.90;82.80
50907;DHT22;36882;27.680;85.304;2022-10-18T04:15:29;22.00;84.10
50907;DHT22;36882;27.680;85.304;2022-10-18T04:18:06;22.10;84.00
50907;DHT22;36882;27.680;85.304;2022-10-18T04:20:50;22.20;83.40
50907;DHT22;36882;27.680;85.304;2022-10-18T04:23:21;22.30;83.50
50907;DHT22;36882;27.680;85.304;2022-10-18T04:25:51;22.40;81.40
50907;DHT22;36882;27.680;85.304;2022-10-18T04:28:37;22.50;82.90
50907;DHT22;36882;27.680;85.304;2022-10-18T04:31:08;22.60;82.30
50907;DHT22;36882;27.680;85.304;2022-10-18T04:33:38;22.80;80.90
50907;DHT22;36882;27.680;85.304;2022-10-18T04:36:14;22.80;81.00
50907;DHT22;36882;27.680;85.304;2022-10-18T04:38:44;22.90;80.90
50907;DHT22;36882;27.680;85.304;2022-10-18T04:41:18;23.00;79.40
50907;DHT22;36882;27.680;85.304;2022-10-18T04:43:48;23.00;80.00
50907;DHT22;36882;27.680;85.304;2022-10-18T04:46:19;23.10;82.70
50907;DHT22;36882;27.680;85.304;2022-10-18T04:48:48;23.10;82.80
50907;DHT22;36882;27.680;85.304;2022-10-18T04:51:19;23.20;82.70
50907;DHT22;36882;27.680;85.304;2022-10-18T04:53:51;23.20;81.90
50907;DHT22;36882;27.680;85.304;2022-10-18T04:56:21;23.30;82.30
50907;DHT22;36882;27.680;85.304;2022-10-18T04:58:50;23.40;81.80
50907;DHT22;36882;27.680;85.304;2022-10-18T05:01:20;23.50;82.20
50907;DHT22;36882;27.680;85.304;2022-10-18T05:03:53;23.60;81.60
50907;DHT22;36882;27.680;85.304;2022-10-18T05:06:23;23.80;81.40
50907;DHT22;36882;27.680;85.304;2022-10-18T05:08:54;23.80;81.40
50907;DHT22;36882;27.680;85.304;2022-10-18T05:11:23;23.80;80.40
50907;DHT22;36882;27.680;85.304;2022-10-18T05:13:53;23.90;79.60
50907;DHT22;36882;27.680;85.304;2022-10-18T05:16:23;23.90;79.80
50907;DHT22;36882;27.680;85.304;2022-10-18T05:18:53;23.90;80.30
50907;DHT22;36882;27.680;85.304;2022-10-18T05:21:22;23.90;80.50
50907;DHT22;36882;27.680;85.304;2022-10-18T05:23:55;24.00;81.00
50907;DHT22;36882;27.680;85.304;2022-10-18T05:26:25;24.20;79.60
50907;DHT22;36882;27.680;85.304;2022-10-18T05:28:55;24.30;79.60
50907;DHT22;36882;27.680;85.304;2022-10-18T05:31:24;24.40;78.30
50907;DHT22;36882;27.680;85.304;2022-10-18T05:33:54;24.50;77.40
50907;DHT22;36882;27.680;85.304;2022-10-18T05:36:24;24.60;77.10
50907;DHT22;36882;27.680;85.304;2022-10-18T05:38:54;24.60;75.90
50907;DHT22;36882;27.680;85.304;2022-10-18T05:41:30;24.60;77.60
50907;DHT22;36882;27.680;85.304;2022-10-18T05:44:04;24.70;76.90
50907;DHT22;36882;27.680;85.304;2022-10-18T05:46:34;24.70;75.90
50907;DHT22;36882;27.680;85.304;2022-10-18T05:49:03;24.90;73.80
50907;DHT22;36882;27.680;85.304;2022-10-18T05:51:33;24.90;73.80
50907;DHT22;36882;27.680;85.304;2022-10-18T05:54:03;24.90;74.00
50907;DHT22;36882;27.680;85.304;2022-10-18T05:56:33;24.90;74.40
50907;DHT22;36882;27.680;85.304;2022-10-18T05:59:05;24.90;75.80
50907;DHT22;36882;27.680;85.304;2022-10-18T06:01:41;24.90;76.00
50907;DHT22;36882;27.680;85.304;2022-10-18T06:04:11;25.00;75.30
50907;DHT22;36882;27.680;85.304;2022-10-18T06:06:42;24.90;74.50
50907;DHT22;36882;27.680;85.304;2022-10-18T06:09:15;25.00;74.20
50907;DHT22;36882;27.680;85.304;2022-10-18T06:12:00;25.00;70.50
50907;DHT22;36882;27.680;85.304;2022-10-18T06:14:29;25.00;71.20
50907;DHT22;36882;27.680;85.304;2022-10-18T06:17:00;25.00;70.10
50907;DHT22;36882;27.680;85.304;2022-10-18T06:19:30;25.20;68.80
50907;DHT22;36882;27.680;85.304;2022-10-18T06:22:00;25.30;70.00
50907;DHT22;36882;27.680;85.304;2022-10-18T06:24:30;25.20;67.60
50907;DHT22;36882;27.680;85.304;2022-10-18T06:27:00;25.10;68.40
50907;DHT22;36882;27.680;85.304;2022-10-18T06:29:37;25.00;69.50
50907;DHT22;36882;27.680;85.304;2022-10-18T06:32:07;25.10;68.80
50907;DHT22;36882;27.680;85.304;2022-10-18T06:34:38;25.00;71.30
50907;DHT22;36882;27.680;85.304;2022-10-18T06:37:08;25.10;71.30
50907;DHT22;36882;27.680;85.304;2022-10-18T06:39:38;25.20;71.60
50907;DHT22;36882;27.680;85.304;2022-10-18T06:42:09;25.30;71.80
50907;DHT22;36882;27.680;85.304;2022-10-18T06:44:39;25.40;72.30
50907;DHT22;36882;27.680;85.304;2022-10-18T06:47:11;25.50;68.80
50907;DHT22;36882;27.680;85.304;2022-10-18T06:49:41;25.40;69.30
50907;DHT22;36882;27.680;85.304;2022-10-18T06:52:11;25.40;70.80
50907;DHT22;36882;27.680;85.304;2022-10-18T06:54:40;25.50;71.40
50907;DHT22;36882;27.680;85.304;2022-10-18T06:57:12;25.50;71.70
50907;DHT22;36882;27.680;85.304;2022-10-18T06:59:42;25.50;72.60
50907;DHT22;36882;27.680;85.304;2022-10-18T07:02:15;25.60;72.90
50907;DHT22;36882;27.680;85.304;2022-10-18T07:04:46;25.60;73.50
50907;DHT22;36882;27.680;85.304;2022-10-18T07:07:16;25.50;72.50
50907;DHT22;36882;27.680;85.304;2022-10-18T07:09:49;25.60;73.30
50907;DHT22;36882;27.680;85.304;2022-10-18T07:12:20;25.60;72.90
50907;DHT22;36882;27.680;85.304;2022-10-18T07:14:50;25.70;73.00
50907;DHT22;36882;27.680;85.304;2022-10-18T07:17:21;25.70;74.20
50907;DHT22;36882;27.680;85.304;2022-10-18T07:19:51;25.90;74.70
50907;DHT22;36882;27.680;85.304;2022-10-18T07:22:22;25.90;72.90
50907;DHT22;36882;27.680;85.304;2022-10-18T07:24:57;25.90;72.40
50907;DHT22;36882;27.680;85.304;2022-10-18T07:27:27;25.90;71.90
50907;DHT22;36882;27.680;85.304;2022-10-18T07:29:58;25.70;72.30
50907;DHT22;36882;27.680;85.304;2022-10-18T07:32:28;25.80;70.40
50907;DHT22;36882;27.680;85.304;2022-10-18T07:34:59;25.80;72.50
50907;DHT22;36882;27.680;85.304;2022-10-18T07:37:31;25.80;73.90
50907;DHT22;36882;27.680;85.304;2022-10-18T07:40:02;25.70;74.30
50907;DHT22;36882;27.680;85.304;2022-10-18T07:42:34;25.80;74.60
50907;DHT22;36882;27.680;85.304;2022-10-18T07:45:05;25.70;73.30
50907;DHT22;36882;27.680;85.304;2022-10-18T07:47:35;25.70;73.60
50907;DHT22;36882;27.680;85.304;2022-10-18T07:50:08;25.70;72.70
50907;DHT22;36882;27.680;85.304;2022-10-18T07:52:38;25.70;74.10
50907;DHT22;36882;27.680;85.304;2022-10-18T07:55:09;25.80;74.20
50907;DHT22;36882;27.680;85.304;2022-10-18T07:57:39;25.80;74.20
50907;DHT22;36882;27.680;85.304;2022-10-18T08:00:11;25.90;74.80
50907;DHT22;36882;27.680;85.304;2022-10-18T08:02:41;25.90;74.00
50907;DHT22;36882;27.680;85.304;2022-10-18T08:05:14;25.90;74.90
50907;DHT22;36882;27.680;85.304;2022-10-18T08:07:44;25.90;74.10
50907;DHT22;36882;27.680;85.304;2022-10-18T08:10:15;25.80;72.60
50907;DHT22;36882;27.680;85.304;2022-10-18T08:12:45;25.90;73.10
50907;DHT22;36882;27.680;85.304;2022-10-18T08:15:16;26.00;74.40
50907;DHT22;36882;27.680;85.304;2022-10-18T08:17:47;26.00;75.30
50907;DHT22;36882;27.680;85.304;2022-10-18T08:20:17;26.10;75.60
50907;DHT22;36882;27.680;85.304;2022-10-18T08:22:58;26.10;75.60
50907;DHT22;36882;27.680;85.304;2022-10-18T08:25:30;26.10;76.20
50907;DHT22;36882;27.680;85.304;2022-10-18T08:28:04;26.00;75.80
50907;DHT22;36882;27.680;85.304;2022-10-18T08:30:35;26.00;75.90
50907;DHT22;36882;27.680;85.304;2022-10-18T08:33:06;26.10;75.60
50907;DHT22;36882;27.680;85.304;2022-10-18T08:35:36;26.00;76.90
50907;DHT22;36882;27.680;85.304;2022-10-18T08:38:07;25.90;77.80
50907;DHT22;36882;27.680;85.304;2022-10-18T08:40:45;25.90;78.10
50907;DHT22;36882;27.680;85.304;2022-10-18T08:43:31;25.90;79.30
50907;DHT22;36882;27.680;85.304;2022-10-18T08:46:03;25.90;79.00
50907;DHT22;36882;27.680;85.304;2022-10-18T08:48:46;25.80;78.70
50907;DHT22;36882;27.680;85.304;2022-10-18T08:51:30;25.90;79.10
50907;DHT22;36882;27.680;85.304;2022-10-18T08:54:28;25.80;79.40
50907;DHT22;36882;27.680;85.304;2022-10-18T08:57:04;25.80;79.50
50907;DHT22;36882;27.680;85.304;2022-10-18T08:59:40;25.70;78.60
50907;DHT22;36882;27.680;85.304;2022-10-18T09:05:35;25.50;79.70
50907;DHT22;36882;27.680;85.304;2022-10-18T09:08:39;25.40;82.10
50907;DHT22;36882;27.680;85.304;2022-10-18T09:14:49;25.10;81.30
50907;DHT22;36882;27.680;85.304;2022-10-18T09:18:11;25.20;81.50
50907;DHT22;36882;27.680;85.304;2022-10-18T09:21:04;25.20;82.30
50907;DHT22;36882;27.680;85.304;2022-10-18T09:23:43;25.10;82.90
50907;DHT22;36882;27.680;85.304;2022-10-18T09:26:20;25.10;83.90
50907;DHT22;36882;27.680;85.304;2022-10-18T09:35:04;25.00;83.90
50907;DHT22;36882;27.680;85.304;2022-10-18T09:37:41;25.00;84.50
50907;DHT22;36882;27.680;85.304;2022-10-18T09:40:17;24.90;84.60
50907;DHT22;36882;27.680;85.304;2022-10-18T09:42:58;24.90;84.60
50907;DHT22;36882;27.680;85.304;2022-10-18T09:48:21;24.90;83.80
50907;DHT22;36882;27.680;85.304;2022-10-18T09:54:19;24.70;85.10
50907;DHT22;36882;27.680;85.304;2022-10-18T09:57:04;24.70;84.00
50907;DHT22;36882;27.680;85.304;2022-10-18T09:59:46;24.60;84.60
50907;DHT22;36882;27.680;85.304;2022-10-18T10:02:25;24.60;84.40
50907;DHT22;36882;27.680;85.304;2022-10-18T10:04:55;24.50;85.30
50907;DHT22;36882;27.680;85.304;2022-10-18T10:07:32;24.40;85.60
50907;DHT22;36882;27.680;85.304;2022-10-18T10:10:18;24.40;85.60
50907;DHT22;36882;27.680;85.304;2022-10-18T10:13:06;24.40;85.80
50907;DHT22;36882;27.680;85.304;2022-10-18T10:15:36;24.40;86.20
50907;DHT22;36882;27.680;85.304;2022-10-18T10:18:19;24.40;85.70
50907;DHT22;36882;27.680;85.304;2022-10-18T10:20:52;24.40;86.00
50907;DHT22;36882;27.680;85.304;2022-10-18T10:23:27;24.40;86.20
50907;DHT22;36882;27.680;85.304;2022-10-18T10:32:17;24.40;86.30
50907;DHT22;36882;27.680;85.304;2022-10-18T10:34:49;24.30;85.90
50907;DHT22;36882;27.680;85.304;2022-10-18T10:37:29;24.20;85.50
50907;DHT22;36882;27.680;85.304;2022-10-18T10:40:16;24.20;86.70
50907;DHT22;36882;27.680;85.304;2022-10-18T10:43:15;24.10;86.60
50907;DHT22;36882;27.680;85.304;2022-10-18T10:46:11;24.00;86.70
50907;DHT22;36882;27.680;85.304;2022-10-18T10:48:54;23.90;87.20
50907;DHT22;36882;27.680;85.304;2022-10-18T10:51:44;23.80;87.90
50907;DHT22;36882;27.680;85.304;2022-10-18T10:54:30;23.70;88.30
50907;DHT22;36882;27.680;85.304;2022-10-18T10:57:18;23.70;88.80
50907;DHT22;36882;27.680;85.304;2022-10-18T10:59:58;23.50;89.60
50907;DHT22;36882;27.680;85.304;2022-10-18T11:02:32;23.40;90.20
50907;DHT22;36882;27.680;85.304;2022-10-18T11:05:24;23.20;90.30
50907;DHT22;36882;27.680;85.304;2022-10-18T11:07:58;23.20;90.40
50907;DHT22;36882;27.680;85.304;2022-10-18T11:10:42;23.10;90.70
50907;DHT22;36882;27.680;85.304;2022-10-18T11:13:55;23.00;90.90
50907;DHT22;36882;27.680;85.304;2022-10-18T11:16:58;22.90;90.90
50907;DHT22;36882;27.680;85.304;2022-10-18T11:20:39;22.90;91.40
50907;DHT22;36882;27.680;85.304;2022-10-18T11:22:47;22.90;91.40
50907;DHT22;36882;27.680;85.304;2022-10-18T11:25:22;22.90;91.20
50907;DHT22;36882;27.680;85.304;2022-10-18T11:28:02;22.80;91.20
50907;DHT22;36882;27.680;85.304;2022-10-18T11:30:49;22.70;91.20
50907;DHT22;36882;27.680;85.304;2022-10-18T11:36:52;22.60;91.70
50907;DHT22;36882;27.680;85.304;2022-10-18T11:46:02;22.50;91.90
50907;DHT22;36882;27.680;85.304;2022-10-18T11:48:59;22.40;91.80
50907;DHT22;36882;27.680;85.304;2022-10-18T11:51:58;22.30;91.90
50907;DHT22;36882;27.680;85.304;2022-10-18T11:57:45;22.30;92.20
50907;DHT22;36882;27.680;85.304;2022-10-18T12:06:34;22.10;92.40
50907;DHT22;36882;27.680;85.304;2022-10-18T12:12:20;22.00;92.40
50907;DHT22;36882;27.680;85.304;2022-10-18T12:15:04;21.90;92.40
50907;DHT22;36882;27.680;85.304;2022-10-18T12:17:39;21.70;92.70
50907;DHT22;36882;27.680;85.304;2022-10-18T12:20:24;21.80;93.00
50907;DHT22;36882;27.680;85.304;2022-10-18T12:23:17;21.70;92.70
50907;DHT22;36882;27.680;85.304;2022-10-18T12:25:52;21.70;92.90
50907;DHT22;36882;27.680;85.304;2022-10-18T12:28:43;21.70;92.60
50907;DHT22;36882;27.680;85.304;2022-10-18T12:31:29;21.70;92.90
50907;DHT22;36882;27.680;85.304;2022-10-18T12:34:39;21.60;93.00
50907;DHT22;36882;27.680;85.304;2022-10-18T12:37:39;21.70;93.10
50907;DHT22;36882;27.680;85.304;2022-10-18T12:40:20;21.60;93.10
50907;DHT22;36882;27.680;85.304;2022-10-18T12:42:53;21.60;93.10
50907;DHT22;36882;27.680;85.304;2022-10-18T12:45:29;21.60;93.20
50907;DHT22;36882;27.680;85.304;2022-10-18T12:48:04;21.50;93.30
50907;DHT22;36882;27.680;85.304;2022-10-18T12:50:38;21.50;93.10
50907;DHT22;36882;27.680;85.304;2022-10-18T12:53:19;21.50;93.30
50907;DHT22;36882;27.680;85.304;2022-10-18T12:55:54;21.50;93.50
50907;DHT22;36882;27.680;85.304;2022-10-18T12:58:35;21.50;93.50
50907;DHT22;36882;27.680;85.304;2022-10-18T13:01:06;21.40;93.70
50907;DHT22;36882;27.680;85.304;2022-10-18T13:07:32;21.50;93.80
50907;DHT22;36882;27.680;85.304;2022-10-18T13:09:33;21.40;93.50
50907;DHT22;36882;27.680;85.304;2022-10-18T13:18:25;21.30;93.70
50907;DHT22;36882;27.680;85.304;2022-10-18T13:21:19;21.20;93.60
50907;DHT22;36882;27.680;85.304;2022-10-18T13:24:18;21.20;93.90
50907;DHT22;36882;27.680;85.304;2022-10-18T13:27:35;21.10;94.20
50907;DHT22;36882;27.680;85.304;2022-10-18T13:30:30;21.00;94.20
50907;DHT22;36882;27.680;85.304;2022-10-18T13:36:19;21.00;94.30
50907;DHT22;36882;27.680;85.304;2022-10-18T13:39:03;21.00;94.30
50907;DHT22;36882;27.680;85.304;2022-10-18T13:42:53;21.00;94.30
50907;DHT22;36882;27.680;85.304;2022-10-18T13:44:43;20.90;94.20
50907;DHT22;36882;27.680;85.304;2022-10-18T13:47:33;20.90;94.40
50907;DHT22;36882;27.680;85.304;2022-10-18T13:50:29;20.90;94.40
50907;DHT22;36882;27.680;85.304;2022-10-18T13:56:13;20.90;94.30
50907;DHT22;36882;27.680;85.304;2022-10-18T13:59:33;20.80;94.40
50907;DHT22;36882;27.680;85.304;2022-10-18T14:02:33;20.80;94.40
50907;DHT22;36882;27.680;85.304;2022-10-18T14:08:33;20.80;94.60
50907;DHT22;36882;27.680;85.304;2022-10-18T14:14:23;20.60;95.10
50907;DHT22;36882;27.680;85.304;2022-10-18T14:22:56;20.60;94.70
50907;DHT22;36882;27.680;85.304;2022-10-18T14:25:35;20.60;94.60
50907;DHT22;36882;27.680;85.304;2022-10-18T14:28:24;20.60;94.60
50907;DHT22;36882;27.680;85.304;2022-10-18T14:31:17;20.50;94.60
50907;DHT22;36882;27.680;85.304;2022-10-18T14:33:53;20.50;94.50
50907;DHT22;36882;27.680;85.304;2022-10-18T14:36:38;20.40;94.60
50907;DHT22;36882;27.680;85.304;2022-10-18T14:39:22;20.50;94.60
50907;DHT22;36882;27.680;85.304;2022-10-18T14:41:55;20.40;94.50
50907;DHT22;36882;27.680;85.304;2022-10-18T14:44:29;20.50;94.30
50907;DHT22;36882;27.680;85.304;2022-10-18T14:49:49;20.40;94.40
50907;DHT22;36882;27.680;85.304;2022-10-18T14:52:26;20.40;94.50
50907;DHT22;36882;27.680;85.304;2022-10-18T14:55:05;20.40;94.50
50907;DHT22;36882;27.680;85.304;2022-10-18T14:57:36;20.30;94.20
50907;DHT22;36882;27.680;85.304;2022-10-18T15:00:15;20.30;94.10
50907;DHT22;36882;27.680;85.304;2022-10-18T15:02:56;20.30;94.20
50907;DHT22;36882;27.680;85.304;2022-10-18T15:05:26;20.30;94.10
50907;DHT22;36882;27.680;85.304;2022-10-18T15:07:57;20.20;94.10
50907;DHT22;36882;27.680;85.304;2022-10-18T15:10:33;20.10;94.10
50907;DHT22;36882;27.680;85.304;2022-10-18T15:13:04;20.10;94.20
50907;DHT22;36882;27.680;85.304;2022-10-18T15:15:38;20.00;94.20
50907;DHT22;36882;27.680;85.304;2022-10-18T15:18:20;20.00;94.20
50907;DHT22;36882;27.680;85.304;2022-10-18T15:23:51;20.00;94.10
50907;DHT22;36882;27.680;85.304;2022-10-18T15:26:27;20.00;93.70
50907;DHT22;36882;27.680;85.304;2022-10-18T15:29:02;20.00;93.70
50907;DHT22;36882;27.680;85.304;2022-10-18T15:31:41;20.00;93.90
50907;DHT22;36882;27.680;85.304;2022-10-18T15:34:19;20.00;93.80
50907;DHT22;36882;27.680;85.304;2022-10-18T15:36:53;20.00;93.90
50907;DHT22;36882;27.680;85.304;2022-10-18T15:39:25;20.00;93.80
50907;DHT22;36882;27.680;85.304;2022-10-18T15:41:59;19.90;93.80
50907;DHT22;36882;27.680;85.304;2022-10-18T15:44:45;20.00;94.00
50907;DHT22;36882;27.680;85.304;2022-10-18T15:47:19;20.00;93.90
50907;DHT22;36882;27.680;85.304;2022-10-18T15:49:56;20.00;93.80
50907;DHT22;36882;27.680;85.304;2022-10-18T15:52:43;19.90;93.60
50907;DHT22;36882;27.680;85.304;2022-10-18T15:58:16;19.90;93.40
50907;DHT22;36882;27.680;85.304;2022-10-18T16:00:48;19.80;93.40
50907;DHT22;36882;27.680;85.304;2022-10-18T16:03:20;19.80;93.40
50907;DHT22;36882;27.680;85.304;2022-10-18T16:06:02;19.80;93.40
50907;DHT22;36882;27.680;85.304;2022-10-18T16:08:39;19.90;93.60
50907;DHT22;36882;27.680;85.304;2022-10-18T16:11:16;19.90;93.50
50907;DHT22;36882;27.680;85.304;2022-10-18T16:13:46;20.00;93.40
50907;DHT22;36882;27.680;85.304;2022-10-18T16:16:19;20.00;93.30
50907;DHT22;36882;27.680;85.304;2022-10-18T16:18:51;19.90;93.30
50907;DHT22;36882;27.680;85.304;2022-10-18T16:21:25;20.00;93.30
50907;DHT22;36882;27.680;85.304;2022-10-18T16:23:56;19.90;93.40
50907;DHT22;36882;27.680;85.304;2022-10-18T16:26:27;19.90;93.20
50907;DHT22;36882;27.680;85.304;2022-10-18T16:29:00;19.90;93.30
50907;DHT22;36882;27.680;85.304;2022-10-18T16:31:34;19.90;93.40
50907;DHT22;36882;27.680;85.304;2022-10-18T16:34:04;19.80;93.20
50907;DHT22;36882;27.680;85.304;2022-10-18T16:36:37;19.80;93.30
50907;DHT22;36882;27.680;85.304;2022-10-18T16:39:18;19.80;93.30
50907;DHT22;36882;27.680;85.304;2022-10-18T16:41:49;19.80;93.20
50907;DHT22;36882;27.680;85.304;2022-10-18T16:44:22;19.80;93.40
50907;DHT22;36882;27.680;85.304;2022-10-18T16:46:55;19.70;93.30
50907;DHT22;36882;27.680;85.304;2022-10-18T16:49:25;19.70;93.30
50907;DHT22;36882;27.680;85.304;2022-10-18T16:51:56;19.70;93.40
50907;DHT22;36882;27.680;85.304;2022-10-18T16:54:30;19.70;93.30
50907;DHT22;36882;27.680;85.304;2022-10-18T16:57:01;19.60;93.30
50907;DHT22;36882;27.680;85.304;2022-10-18T16:59:31;19.60;93.50
50907;DHT22;36882;27.680;85.304;2022-10-18T17:02:03;19.50;93.50
50907;DHT22;36882;27.680;85.304;2022-10-18T17:04:37;19.60;93.50
50907;DHT22;36882;27.680;85.304;2022-10-18T17:07:13;19.60;93.30
50907;DHT22;36882;27.680;85.304;2022-10-18T17:09:48;19.60;93.30
50907;DHT22;36882;27.680;85.304;2022-10-18T17:12:18;19.60;93.40
50907;DHT22;36882;27.680;85.304;2022-10-18T17:14:48;19.70;93.10
50907;DHT22;36882;27.680;85.304;2022-10-18T17:17:18;19.70;93.20
50907;DHT22;36882;27.680;85.304;2022-10-18T17:20:02;19.60;93.10
50907;DHT22;36882;27.680;85.304;2022-10-18T17:22:33;19.60;93.10
50907;DHT22;36882;27.680;85.304;2022-10-18T17:25:03;19.50;93.10
50907;DHT22;36882;27.680;85.304;2022-10-18T17:27:33;19.50;93.40
50907;DHT22;36882;27.680;85.304;2022-10-18T17:30:03;19.50;93.30
50907;DHT22;36882;27.680;85.304;2022-10-18T17:32:33;19.50;93.20
50907;DHT22;36882;27.680;85.304;2022-10-18T17:35:04;19.40;93.40
50907;DHT22;36882;27.680;85.304;2022-10-18T17:37:38;19.30;93.60
50907;DHT22;36882;27.680;85.304;2022-10-18T17:40:12;19.30;93.50
50907;DHT22;36882;27.680;85.304;2022-10-18T17:42:42;19.30;93.50
50907;DHT22;36882;27.680;85.304;2022-10-18T17:45:13;19.20;93.60
50907;DHT22;36882;27.680;85.304;2022-10-18T17:47:43;19.10;94.00
50907;DHT22;36882;27.680;85.304;2022-10-18T17:50:13;19.10;93.90